Time;durP1;ratioP1;P1;durP2;ratioP2;P2;SDS_P1;SDS_P2;PMS_P1;PMS_P2;Temp;Humidity;BMP_temperature;BMP_pressure;BME280_temperature;BME280_humidity;BME280_pressure;Samples;Min_cycle;Max_cycle;Signal;HPM_P1;HPM_P2
2022/12/15 00:38:59;;;;;;;37.08;19.95;;;-6.40;99.90;;;;;;5072618;28;20031;-84
2022/12/15 00:41:24;;;;;;;38.77;19.50;;;-6.40;99.90;;;;;;5068985;28;20020;-85
2022/12/15 00:43:50;;;;;;;43.97;20.40;;;-6.40;99.90;;;;;;5067026;28;22212;-84
2022/12/15 00:49:00;;;;;;;40.40;20.35;;;-6.50;99.90;;;;;;5075115;28;20100;-87
2022/12/15 01:21:38;;;;;;;55.40;25.40;;;-7.00;99.90;;;;;;5086470;28;20031;-85
2022/12/15 01:24:04;;;;;;;57.83;25.63;;;-7.10;99.90;;;;;;5079805;28;20028;-85
2022/12/15 01:26:30;;;;;;;55.80;25.63;;;-7.10;99.90;;;;;;5084632;28;20038;-86
2022/12/15 01:28:55;;;;;;;56.10;26.03;;;-7.20;99.90;;;;;;5081190;28;20157;-85
2022/12/15 01:31:21;;;;;;;53.83;25.30;;;-7.10;99.90;;;;;;5087520;28;20659;-83
2022/12/15 01:33:46;;;;;;;52.33;24.53;;;-7.20;99.90;;;;;;5083831;28;20711;-84
2022/12/15 01:36:13;;;;;;;52.80;24.23;;;-7.20;99.90;;;;;;5088106;28;20024;-84
2022/12/15 01:38:38;;;;;;;48.07;24.00;;;-7.20;99.90;;;;;;5082394;28;20583;-87
2022/12/15 01:41:08;;;;;;;49.47;23.37;;;-7.20;99.90;;;;;;5075438;28;20051;-85
2022/12/15 01:43:39;;;;;;;50.67;23.23;;;-7.20;99.90;;;;;;5077534;28;20024;-85
2022/12/15 01:46:06;;;;;;;49.33;23.23;;;-7.20;99.90;;;;;;5079340;28;20539;-84
2022/12/15 01:48:38;;;;;;;51.20;24.33;;;-7.20;99.90;;;;;;5071770;28;20043;-86
2022/12/15 01:51:05;;;;;;;49.77;23.27;;;-7.20;99.90;;;;;;5074727;28;20048;-85
2022/12/15 01:53:36;;;;;;;46.53;21.40;;;-7.20;99.90;;;;;;5076353;28;20125;-85
2022/12/15 01:56:04;;;;;;;50.47;22.43;;;-7.20;99.90;;;;;;5077693;28;20032;-85
2022/12/15 01:58:30;;;;;;;44.47;22.10;;;-7.20;99.90;;;;;;5077461;28;20039;-84
2022/12/15 02:00:57;;;;;;;48.33;22.37;;;-7.10;99.90;;;;;;5071182;28;20030;-84
2022/12/15 02:03:23;;;;;;;45.77;22.47;;;-7.20;99.90;;;;;;5069301;28;20512;-84
2022/12/15 02:05:49;;;;;;;50.33;22.20;;;-7.20;99.90;;;;;;5073360;28;20057;-85
2022/12/15 02:08:15;;;;;;;45.63;23.47;;;-7.20;99.90;;;;;;5073561;28;20036;-86
2022/12/15 02:10:55;;;;;;;45.53;22.83;;;-7.20;99.90;;;;;;5074113;28;20034;-84
2022/12/15 02:13:30;;;;;;;51.13;23.03;;;-7.30;99.90;;;;;;5075948;28;20032;-86
2022/12/15 02:16:08;;;;;;;45.57;22.27;;;-7.30;99.90;;;;;;5075771;28;21070;-84
2022/12/15 02:18:42;;;;;;;44.13;21.23;;;-7.40;99.90;;;;;;5078149;28;20051;-85
2022/12/15 02:21:17;;;;;;;50.33;22.27;;;-7.40;99.90;;;;;;5075676;28;20055;-84
2022/12/15 02:23:57;;;;;;;46.30;22.90;;;-7.40;99.90;;;;;;5074059;28;20329;-85
2022/12/15 02:26:42;;;;;;;48.17;21.70;;;-7.40;99.90;;;;;;5075807;28;20042;-86
2022/12/15 02:29:22;;;;;;;48.37;22.20;;;-7.40;99.90;;;;;;5077164;28;20028;-85
2022/12/15 02:32:08;;;;;;;53.13;24.00;;;-7.40;99.90;;;;;;5076123;28;20043;-84
2022/12/15 02:34:51;;;;;;;50.90;23.13;;;-7.40;99.90;;;;;;5075491;28;20036;-84
2022/12/15 02:37:29;;;;;;;49.17;22.50;;;-7.40;99.90;;;;;;5076174;28;20393;-87
2022/12/15 02:39:55;;;;;;;51.93;22.83;;;-7.40;99.90;;;;;;5071879;28;20032;-85
2022/12/15 02:42:22;;;;;;;49.90;22.73;;;-7.40;99.90;;;;;;5073822;28;20059;-84
2022/12/15 02:44:59;;;;;;;48.87;22.87;;;-7.50;99.90;;;;;;5080731;28;20611;-86
2022/12/15 02:47:37;;;;;;;46.37;22.13;;;-7.50;99.90;;;;;;5071933;28;20554;-83
2022/12/15 02:50:42;;;;;;;42.93;20.83;;;-7.50;99.90;;;;;;5084158;28;20119;-85
2022/12/15 02:53:41;;;;;;;46.80;21.27;;;-7.50;99.90;;;;;;5027384;28;20398;-84
2022/12/15 02:56:44;;;;;;;46.97;20.90;;;-7.50;99.90;;;;;;5080363;28;20100;-85
2022/12/15 02:59:21;;;;;;;47.30;20.25;;;-7.50;99.90;;;;;;4996295;28;20030;-84
2022/12/15 03:02:00;;;;;;;56.33;22.20;;;-7.40;99.90;;;;;;5073361;28;20119;-84
2022/12/15 03:04:26;;;;;;;49.23;22.10;;;-7.40;99.90;;;;;;5082846;28;20035;-84
2022/12/15 03:07:02;;;;;;;52.30;21.87;;;-7.40;99.90;;;;;;5073363;28;20036;-84
2022/12/15 03:09:29;;;;;;;58.27;23.10;;;-7.40;99.90;;;;;;5080590;28;20020;-84
2022/12/15 03:11:55;;;;;;;54.00;22.33;;;-7.30;99.90;;;;;;5073591;28;20071;-84
2022/12/15 03:14:20;;;;;;;52.40;21.73;;;-7.30;99.90;;;;;;5079248;28;20285;-84
2022/12/15 03:16:46;;;;;;;57.67;22.73;;;-7.20;99.90;;;;;;5081552;28;20024;-84
2022/12/15 03:19:12;;;;;;;56.53;23.40;;;-7.10;99.90;;;;;;5077108;28;20036;-84
2022/12/15 03:21:37;;;;;;;59.73;23.30;;;-7.10;99.90;;;;;;5072356;28;20032;-85
2022/12/15 03:24:03;;;;;;;55.17;22.13;;;-7.00;99.90;;;;;;5072806;28;20178;-84
2022/12/15 03:26:29;;;;;;;56.17;22.67;;;-7.00;99.90;;;;;;5070594;28;20031;-84
2022/12/15 03:28:54;;;;;;;61.07;23.47;;;-7.00;99.90;;;;;;5078738;28;20093;-85
2022/12/15 03:31:20;;;;;;;53.97;23.27;;;-6.90;99.90;;;;;;5082931;28;20073;-85
2022/12/15 03:33:46;;;;;;;55.47;22.53;;;-6.90;99.90;;;;;;5072552;28;20363;-84
2022/12/15 03:36:11;;;;;;;70.47;22.63;;;-6.90;99.90;;;;;;5083079;28;20024;-84
2022/12/15 03:38:37;;;;;;;55.70;23.20;;;-6.90;99.90;;;;;;5080225;28;20028;-84
2022/12/15 03:41:02;;;;;;;61.00;24.77;;;-6.90;99.90;;;;;;5085257;28;20076;-84
2022/12/15 03:43:28;;;;;;;54.43;22.27;;;-6.80;99.90;;;;;;5080909;28;20028;-85
2022/12/15 03:45:53;;;;;;;55.27;23.27;;;-6.80;99.90;;;;;;5080806;28;20092;-87
2022/12/15 03:48:19;;;;;;;55.50;24.27;;;-6.70;99.90;;;;;;5081246;28;20016;-84
2022/12/15 03:50:47;;;;;;;60.33;22.70;;;-6.70;99.90;;;;;;5078797;28;20020;-84
2022/12/15 03:53:13;;;;;;;70.90;22.90;;;-6.70;99.90;;;;;;5082276;28;20119;-85
2022/12/15 03:55:38;;;;;;;72.20;23.70;;;-6.60;99.90;;;;;;5082592;28;20158;-86
2022/12/15 03:58:04;;;;;;;66.00;21.93;;;-6.60;99.90;;;;;;5079566;28;20024;-84
2022/12/15 04:00:30;;;;;;;54.67;23.83;;;-6.60;99.90;;;;;;5078976;28;20034;-84
2022/12/15 04:02:55;;;;;;;52.83;22.83;;;-6.60;99.90;;;;;;5072119;28;20478;-86
2022/12/15 04:05:27;;;;;;;55.50;23.47;;;-6.60;99.90;;;;;;5067703;28;20501;-84
2022/12/15 04:07:54;;;;;;;62.47;25.00;;;-6.60;99.90;;;;;;5084568;28;20021;-86
2022/12/15 04:10:20;;;;;;;55.80;24.40;;;-6.50;99.90;;;;;;5081808;28;20525;-85
2022/12/15 04:12:45;;;;;;;65.03;24.27;;;-6.50;99.90;;;;;;5076102;28;20031;-82
2022/12/15 04:15:11;;;;;;;86.13;24.30;;;-6.50;99.90;;;;;;5074151;28;20024;-86
2022/12/15 04:17:38;;;;;;;80.03;23.30;;;-6.50;99.90;;;;;;5079986;28;20126;-87
2022/12/15 04:20:08;;;;;;;55.07;23.07;;;-6.50;99.90;;;;;;5081669;28;20559;-87
2022/12/15 04:22:45;;;;;;;69.37;23.93;;;-6.40;99.90;;;;;;5076523;28;20054;-86
2022/12/15 05:31:53;;;;;;;63.20;24.30;;;-5.40;99.90;;;;;;5081027;28;20111;-85
2022/12/15 05:34:23;;;;;;;47.90;18.08;;;-5.30;99.90;;;;;;5082693;28;20035;-86
2022/12/15 05:36:49;;;;;;;90.45;25.92;;;-5.30;99.90;;;;;;5073414;28;20550;-86
2022/12/15 05:39:15;;;;;;;72.88;27.30;;;-5.30;99.90;;;;;;5076989;28;20509;-86
2022/12/15 05:41:41;;;;;;;67.00;25.80;;;-5.30;99.90;;;;;;5081521;28;20032;-87
2022/12/15 05:44:07;;;;;;;67.97;26.02;;;-5.30;99.90;;;;;;5075002;28;20024;-85
2022/12/15 05:46:32;;;;;;;79.68;28.55;;;-5.20;99.90;;;;;;5079010;28;20609;-85
2022/12/15 05:48:58;;;;;;;75.80;28.45;;;-5.20;99.90;;;;;;5074793;28;20039;-85
2022/12/15 05:51:24;;;;;;;70.22;27.63;;;-5.10;99.90;;;;;;5082807;28;20426;-85
2022/12/15 05:53:49;;;;;;;105.28;26.25;;;-5.10;99.90;;;;;;5074381;28;20748;-85
2022/12/15 05:56:27;;;;;;;65.38;24.80;;;-5.10;99.90;;;;;;4793717;28;10002182;-77
2022/12/15 05:58:56;;;;;;;67.20;25.55;;;-5.10;99.90;;;;;;5071446;28;20351;-85
2022/12/15 06:01:22;;;;;;;72.65;26.48;;;-5.10;99.90;;;;;;5068942;28;20462;-85
2022/12/15 06:03:48;;;;;;;75.38;26.58;;;-5.20;99.90;;;;;;5070804;28;20044;-85
2022/12/15 06:06:13;;;;;;;75.10;27.55;;;-5.10;99.90;;;;;;5066736;28;20051;-85
2022/12/15 06:08:41;;;;;;;67.60;26.27;;;-5.10;99.90;;;;;;5071904;28;20036;-84
2022/12/15 06:11:09;;;;;;;72.97;26.27;;;-5.20;99.90;;;;;;5077138;28;20123;-84
2022/12/15 06:13:34;;;;;;;73.38;26.40;;;-5.10;99.90;;;;;;5076150;28;20049;-85
2022/12/15 06:16:05;;;;;;;82.88;27.55;;;-5.10;99.90;;;;;;5072107;28;20493;-86
2022/12/15 06:18:35;;;;;;;68.32;26.77;;;-5.10;99.90;;;;;;5072835;28;20044;-84
2022/12/15 06:21:04;;;;;;;73.22;27.27;;;-5.00;99.90;;;;;;5065431;28;20107;-85
2022/12/15 06:23:33;;;;;;;80.63;27.60;;;-5.10;99.90;;;;;;5075221;28;20128;-84
2022/12/15 06:26:09;;;;;;;62.72;24.40;;;-5.00;99.90;;;;;;5076842;28;20534;-84
2022/12/15 06:28:34;;;;;;;62.70;24.45;;;-5.00;99.90;;;;;;5086092;28;20437;-84
2022/12/15 06:31:02;;;;;;;73.47;24.52;;;-5.00;99.90;;;;;;5083491;28;20028;-84
2022/12/15 06:33:29;;;;;;;66.00;25.55;;;-5.00;99.90;;;;;;5069067;28;20048;-84
2022/12/15 06:35:55;;;;;;;66.10;24.63;;;-5.00;99.90;;;;;;5087489;28;20169;-85
2022/12/15 06:38:21;;;;;;;76.07;25.05;;;-5.00;99.90;;;;;;5088987;28;20040;-84
2022/12/15 06:40:54;;;;;;;76.55;25.33;;;-5.00;99.90;;;;;;5078584;28;20032;-84
2022/12/15 06:43:20;;;;;;;68.93;26.75;;;-5.00;99.90;;;;;;5086575;28;20102;-84
2022/12/15 06:45:50;;;;;;;73.50;27.80;;;-5.00;99.90;;;;;;5083288;28;20601;-84
2022/12/15 06:48:16;;;;;;;78.20;26.38;;;-5.00;99.90;;;;;;5083099;28;20078;-85
2022/12/15 06:50:44;;;;;;;93.60;25.23;;;-4.90;99.90;;;;;;5087214;28;20057;-84
2022/12/15 06:53:10;;;;;;;91.82;24.42;;;-5.00;99.90;;;;;;5081690;28;20032;-85
2022/12/15 06:55:36;;;;;;;67.90;24.90;;;-4.90;99.90;;;;;;5080778;28;20029;-85
2022/12/15 06:58:01;;;;;;;61.28;24.17;;;-5.00;99.90;;;;;;5084098;28;20466;-85
2022/12/15 07:00:27;;;;;;;65.97;23.25;;;-5.00;99.90;;;;;;5081091;28;20032;-84
2022/12/15 07:02:53;;;;;;;57.00;22.95;;;-5.00;99.90;;;;;;5076123;28;20100;-85
2022/12/15 07:05:20;;;;;;;60.10;23.40;;;-5.10;99.90;;;;;;5085614;28;20047;-84
2022/12/15 07:07:46;;;;;;;67.95;23.92;;;-5.00;99.90;;;;;;5077587;28;20028;-84
2022/12/15 07:10:12;;;;;;;70.28;23.92;;;-5.10;99.90;;;;;;5076715;28;20028;-83
2022/12/15 07:12:37;;;;;;;68.85;24.15;;;-5.00;99.90;;;;;;5079375;28;20477;-83
2022/12/15 07:15:03;;;;;;;73.57;23.63;;;-5.00;99.90;;;;;;5075688;28;20044;-84
2022/12/15 07:17:29;;;;;;;60.00;22.77;;;-5.10;99.90;;;;;;5077227;28;20613;-83
2022/12/15 07:19:54;;;;;;;59.58;23.83;;;-5.00;99.90;;;;;;5080560;28;20067;-83
2022/12/15 07:22:21;;;;;;;59.85;21.98;;;-5.00;99.90;;;;;;5084287;28;20031;-84
2022/12/15 07:24:47;;;;;;;61.78;23.92;;;-5.00;99.90;;;;;;5085153;28;20592;-83
2022/12/15 07:27:13;;;;;;;85.07;23.95;;;-5.00;99.90;;;;;;5090167;28;20028;-84
2022/12/15 07:29:39;;;;;;;63.25;24.13;;;-5.00;99.90;;;;;;5081796;28;20287;-82
2022/12/15 07:32:04;;;;;;;69.45;25.95;;;-4.90;99.90;;;;;;5084257;28;20024;-79
2022/12/15 07:34:30;;;;;;;59.08;23.02;;;-4.90;99.90;;;;;;5077495;28;20036;-78
2022/12/15 07:36:56;;;;;;;58.20;22.58;;;-4.80;99.90;;;;;;5086075;28;20036;-79
2022/12/15 07:39:21;;;;;;;58.60;23.38;;;-4.80;99.90;;;;;;5084607;28;20024;-79
2022/12/15 07:41:47;;;;;;;55.25;22.58;;;-4.80;99.90;;;;;;5083013;28;20111;-78
2022/12/15 07:44:13;;;;;;;72.22;26.63;;;-4.80;99.90;;;;;;5079008;28;20044;-78
2022/12/15 07:46:39;;;;;;;68.03;25.17;;;-4.80;99.90;;;;;;5079462;28;20032;-78
2022/12/15 07:49:05;;;;;;;62.38;23.92;;;-4.80;99.90;;;;;;5083405;28;20058;-78
2022/12/15 07:51:30;;;;;;;55.08;22.73;;;-4.80;99.90;;;;;;5090422;28;20035;-78
2022/12/15 07:53:56;;;;;;;64.88;23.50;;;-4.70;99.90;;;;;;5082675;28;20560;-78
2022/12/15 07:56:22;;;;;;;67.45;25.35;;;-4.70;99.90;;;;;;5082088;28;20098;-78
2022/12/15 07:58:48;;;;;;;56.03;23.00;;;-4.70;99.90;;;;;;5066725;28;20033;-78
2022/12/15 08:01:14;;;;;;;66.97;25.05;;;-4.70;99.90;;;;;;5073777;28;20047;-78
2022/12/15 08:03:40;;;;;;;62.88;23.80;;;-4.70;99.90;;;;;;5083770;28;20023;-78
2022/12/15 08:06:08;;;;;;;67.10;25.13;;;-4.70;99.90;;;;;;5083593;28;20028;-78
2022/12/15 08:08:34;;;;;;;65.38;23.92;;;-4.60;99.90;;;;;;5084570;28;20032;-78
2022/12/15 08:11:06;;;;;;;71.55;25.88;;;-4.70;99.90;;;;;;5073469;28;20024;-78
2022/12/15 08:13:33;;;;;;;74.03;24.25;;;-4.70;99.90;;;;;;5071665;28;20073;-78
2022/12/15 08:15:59;;;;;;;61.45;23.73;;;-4.70;99.90;;;;;;5080500;28;20443;-78
2022/12/15 08:18:24;;;;;;;64.32;25.08;;;-4.70;99.90;;;;;;5080161;28;20020;-82
2022/12/15 08:20:50;;;;;;;73.07;24.23;;;-4.70;99.90;;;;;;5075272;28;20402;-83
2022/12/15 08:23:16;;;;;;;73.07;25.20;;;-4.70;99.90;;;;;;5076939;28;20067;-83
2022/12/15 08:25:42;;;;;;;64.68;24.65;;;-4.60;99.90;;;;;;5078785;28;20115;-83
2022/12/15 08:28:08;;;;;;;65.57;25.83;;;-4.60;99.90;;;;;;5082026;28;20017;-83
2022/12/15 08:30:35;;;;;;;65.60;23.88;;;-4.60;99.90;;;;;;5081615;28;20089;-84
2022/12/15 08:33:01;;;;;;;63.45;24.45;;;-4.60;99.90;;;;;;5079176;28;20032;-84
2022/12/15 08:35:28;;;;;;;64.63;24.90;;;-4.60;99.90;;;;;;5090368;28;20431;-84
2022/12/15 08:37:53;;;;;;;91.10;25.38;;;-4.50;99.90;;;;;;5087223;28;20036;-83
2022/12/15 08:40:19;;;;;;;70.07;24.92;;;-4.50;99.90;;;;;;5070893;28;20039;-83
2022/12/15 08:42:45;;;;;;;63.90;24.33;;;-4.50;99.90;;;;;;5086364;28;20032;-83
2022/12/15 08:45:13;;;;;;;85.20;25.45;;;-4.50;99.90;;;;;;5089270;28;20101;-82
2022/12/15 08:47:39;;;;;;;60.85;23.02;;;-4.50;99.90;;;;;;5086760;28;20493;-84
2022/12/15 08:50:06;;;;;;;65.97;24.10;;;-4.50;99.90;;;;;;5088402;28;20032;-83
2022/12/15 08:52:33;;;;;;;67.10;25.13;;;-4.50;99.90;;;;;;5087842;28;20054;-87
2022/12/15 08:54:59;;;;;;;65.15;24.70;;;-4.40;99.90;;;;;;5086643;28;20040;-84
2022/12/15 08:57:25;;;;;;;64.05;24.08;;;-4.40;99.90;;;;;;5084010;28;20162;-83
2022/12/15 08:59:50;;;;;;;66.97;24.05;;;-4.40;99.90;;;;;;5083390;28;20052;-84
2022/12/15 09:02:16;;;;;;;57.97;23.77;;;-4.40;99.90;;;;;;5080430;28;20519;-88
2022/12/15 09:04:42;;;;;;;59.33;22.30;;;-4.40;99.90;;;;;;5081583;28;20465;-85
2022/12/15 09:07:08;;;;;;;61.83;23.10;;;-4.30;99.90;;;;;;5084254;28;20474;-84
2022/12/15 09:09:34;;;;;;;53.45;21.08;;;-4.40;99.90;;;;;;5077712;28;20046;-81
2022/12/15 09:12:00;;;;;;;59.15;22.25;;;-4.40;99.90;;;;;;5080160;28;20565;-83
2022/12/15 09:14:26;;;;;;;60.67;23.67;;;-4.40;99.90;;;;;;5079281;28;20110;-85
2022/12/15 09:16:51;;;;;;;58.75;22.20;;;-4.50;99.90;;;;;;5080918;28;20474;-81
2022/12/15 09:19:18;;;;;;;62.78;24.17;;;-4.50;99.90;;;;;;5086778;28;20065;-82
2022/12/15 09:21:43;;;;;;;68.63;23.80;;;-4.50;99.90;;;;;;5074996;28;20486;-86
2022/12/15 09:24:12;;;;;;;57.03;23.52;;;-4.50;99.90;;;;;;5076295;28;20034;-84
2022/12/15 09:26:38;;;;;;;59.13;22.85;;;-4.40;99.90;;;;;;5074704;28;20037;-84
2022/12/15 09:29:03;;;;;;;67.18;25.58;;;-4.40;99.90;;;;;;5081148;28;20043;-85
2022/12/15 09:31:31;;;;;;;64.22;25.00;;;-4.40;99.90;;;;;;5087009;28;20047;-84
2022/12/15 09:33:58;;;;;;;63.10;24.65;;;-4.30;99.90;;;;;;5087864;28;20119;-89
2022/12/15 09:36:25;;;;;;;66.82;26.25;;;-4.30;99.90;;;;;;5077748;28;20043;-77
2022/12/15 09:38:51;;;;;;;64.43;25.23;;;-4.20;99.90;;;;;;5085898;28;20158;-72
2022/12/15 09:41:29;;;;;;;57.33;23.45;;;-4.10;99.90;;;;;;5085557;28;20032;-76
2022/12/15 09:44:14;;;;;;;65.75;23.70;;;-4.10;99.90;;;;;;5071476;28;20032;-75
2022/12/15 09:47:17;;;;;;;64.30;24.38;;;-4.10;99.90;;;;;;5084040;28;20046;-76
2022/12/15 09:50:01;;;;;;;59.45;23.38;;;-4.10;99.90;;;;;;5070481;28;20029;-73
2022/12/15 09:52:30;;;;;;;63.10;23.80;;;-4.10;99.90;;;;;;5084264;28;20431;-76
2022/12/15 09:54:57;;;;;;;55.33;22.60;;;-4.00;99.90;;;;;;5090099;28;20032;-75
2022/12/15 09:57:34;;;;;;;61.45;23.30;;;-4.00;99.90;;;;;;5080940;28;20020;-74
2022/12/15 10:00:14;;;;;;;55.83;22.83;;;-4.00;99.90;;;;;;5088989;28;20036;-74
2022/12/15 10:03:08;;;;;;;60.85;21.88;;;-4.00;99.90;;;;;;5084467;28;20107;-75
2022/12/15 10:06:04;;;;;;;55.60;22.63;;;-3.90;99.90;;;;;;5072936;28;20009;-74
2022/12/15 10:08:36;;;;;;;52.50;21.55;;;-3.90;99.90;;;;;;5085555;28;20020;-73
2022/12/15 10:11:13;;;;;;;51.75;20.92;;;-3.90;99.90;;;;;;5069839;28;20052;-72
2022/12/15 10:14:13;;;;;;;50.83;20.52;;;-3.90;99.90;;;;;;5072811;28;20562;-74
2022/12/15 10:17:00;;;;;;;54.42;21.45;;;-4.00;99.90;;;;;;5049508;28;20694;-72
2022/12/15 10:19:47;;;;;;;52.63;21.23;;;-4.00;99.90;;;;;;5072800;28;20041;-71
2022/12/15 10:22:18;;;;;;;53.30;22.13;;;-4.00;99.90;;;;;;5076067;28;20070;-73
2022/12/15 10:24:44;;;;;;;55.08;22.00;;;-3.90;99.90;;;;;;5076709;28;20019;-74
2022/12/15 10:27:16;;;;;;;64.25;23.60;;;-3.90;99.90;;;;;;5073171;28;20050;-74
2022/12/15 10:30:11;;;;;;;61.97;24.10;;;-3.90;99.90;;;;;;5080287;28;20028;-74
2022/12/15 10:32:49;;;;;;;96.32;31.60;;;-3.90;99.90;;;;;;5062693;28;20135;-73
2022/12/15 10:35:20;;;;;;;62.33;26.65;;;-3.90;99.90;;;;;;5082362;28;20028;-74
2022/12/15 10:37:46;;;;;;;56.13;23.42;;;-3.80;99.90;;;;;;5083237;28;20673;-73
2022/12/15 10:40:38;;;;;;;55.88;22.75;;;-3.80;99.90;;;;;;5077656;28;20016;-74
2022/12/15 10:43:23;;;;;;;61.87;24.03;;;-3.70;99.90;;;;;;5073540;28;20417;-74
2022/12/15 10:46:08;;;;;;;60.20;23.92;;;-3.70;99.90;;;;;;5081198;28;20052;-74
2022/12/15 10:48:35;;;;;;;54.13;22.15;;;-3.40;99.90;;;;;;5073267;28;20024;-73
2022/12/15 10:51:20;;;;;;;59.00;23.98;;;-3.30;99.90;;;;;;5081640;28;20130;-73
2022/12/15 10:53:48;;;;;;;58.50;23.75;;;-3.40;99.90;;;;;;5078618;28;20024;-72
2022/12/15 10:56:24;;;;;;;57.53;23.23;;;-3.40;99.90;;;;;;5080371;28;20024;-73
2022/12/15 10:58:53;;;;;;;60.33;23.83;;;-3.40;99.90;;;;;;5081200;28;20146;-72
2022/12/15 11:01:23;;;;;;;66.00;25.35;;;-3.50;99.90;;;;;;5083375;28;20020;-72
2022/12/15 11:03:51;;;;;;;59.90;24.08;;;-3.50;99.90;;;;;;5075815;28;20161;-73
2022/12/15 11:06:21;;;;;;;52.45;21.88;;;-3.40;99.90;;;;;;5074098;28;20129;-73
2022/12/15 11:08:50;;;;;;;55.28;23.15;;;-3.40;99.90;;;;;;5078318;28;20016;-72
2022/12/15 11:14:22;;;;;;;62.47;23.80;;;-3.50;99.90;;;;;;5081907;28;20058;-73
2022/12/15 11:16:58;;;;;;;59.00;23.13;;;-3.50;99.90;;;;;;5077009;28;20024;-73
2022/12/15 11:19:46;;;;;;;58.05;24.00;;;-3.40;99.90;;;;;;5078290;28;20028;-76
2022/12/15 11:22:35;;;;;;;61.70;25.20;;;-3.50;99.90;;;;;;4347640;28;10001371;-74
2022/12/15 11:25:30;;;;;;;62.33;24.13;;;-3.50;99.90;;;;;;5042378;28;20024;-73
2022/12/15 11:27:58;;;;;;;56.00;23.90;;;-3.50;99.90;;;;;;5025844;28;20092;-73
2022/12/15 11:30:30;;;;;;;51.78;22.38;;;-3.30;99.90;;;;;;5055022;28;20107;-73
2022/12/15 11:32:59;;;;;;;53.55;21.98;;;-3.30;99.90;;;;;;5052385;28;20028;-75
2022/12/15 11:35:45;;;;;;;58.28;23.83;;;-3.30;99.90;;;;;;5051182;28;20517;-74
2022/12/15 11:38:49;;;;;;;58.42;22.17;;;-3.40;99.90;;;;;;5048994;28;20499;-76
2022/12/15 11:41:26;;;;;;;56.70;24.33;;;-3.30;99.90;;;;;;5060190;28;20573;-74
2022/12/15 11:44:14;;;;;;;64.07;24.55;;;-3.30;99.90;;;;;;5052871;28;20079;-74
2022/12/15 11:46:53;;;;;;;62.00;24.05;;;-3.20;99.90;;;;;;5040031;28;20053;-76
2022/12/15 11:49:33;;;;;;;63.78;25.25;;;-3.10;99.90;;;;;;5037187;28;20037;-74
2022/12/15 11:52:11;;;;;;;60.42;24.73;;;-3.20;99.90;;;;;;5038546;28;20048;-80
2022/12/15 11:54:54;;;;;;;60.88;24.38;;;-3.20;99.90;;;;;;5052137;28;20043;-79
2022/12/15 11:57:51;;;;;;;51.38;22.02;;;-3.20;99.90;;;;;;5061116;28;20048;-77
2022/12/15 12:00:20;;;;;;;58.17;22.98;;;-3.20;99.90;;;;;;5062715;28;20033;-77
2022/12/15 12:02:56;;;;;;;55.42;22.85;;;-3.20;99.90;;;;;;5055517;28;20059;-76
2022/12/15 12:05:57;;;;;;;63.13;23.20;;;-3.10;99.90;;;;;;5044015;28;20032;-76
2022/12/15 12:08:49;;;;;;;57.97;22.92;;;-3.10;99.90;;;;;;5046895;28;20043;-77
2022/12/15 12:11:20;;;;;;;59.25;23.77;;;-3.20;99.90;;;;;;5056200;28;20033;-76
2022/12/15 12:13:52;;;;;;;58.83;24.20;;;-3.20;99.90;;;;;;5052062;28;20033;-76
2022/12/15 12:16:37;;;;;;;45.30;19.20;;;-3.30;99.90;;;;;;5046652;28;20040;-76
2022/12/15 12:19:14;;;;;;;60.20;24.10;;;-3.30;99.90;;;;;;5051616;28;20032;-76
2022/12/15 12:21:48;;;;;;;57.33;23.40;;;-3.30;99.90;;;;;;5051008;28;20112;-73
2022/12/15 12:24:29;;;;;;;54.85;22.05;;;-3.30;99.90;;;;;;5052257;28;20759;-74
2022/12/15 12:27:04;;;;;;;54.38;22.60;;;-3.30;99.90;;;;;;5053138;28;20068;-74
2022/12/15 12:29:38;;;;;;;50.67;21.15;;;-3.30;99.90;;;;;;5059530;28;20032;-74
2022/12/15 12:32:22;;;;;;;46.75;19.38;;;-3.20;99.90;;;;;;5045446;28;20103;-74
2022/12/15 12:35:20;;;;;;;55.30;22.92;;;-3.30;99.90;;;;;;5060605;28;20738;-80
2022/12/15 12:37:53;;;;;;;50.40;21.70;;;-3.30;99.90;;;;;;5050800;28;20102;-73
2022/12/15 12:40:34;;;;;;;54.05;22.20;;;-3.40;99.90;;;;;;5058383;28;20262;-76
2022/12/15 12:43:01;;;;;;;55.50;23.40;;;-3.40;99.90;;;;;;5055668;28;20057;-75
2022/12/15 12:45:35;;;;;;;53.95;23.48;;;-3.40;99.90;;;;;;5064265;28;20788;-74
2022/12/15 12:48:12;;;;;;;57.92;24.52;;;-3.40;99.90;;;;;;5079275;28;20032;-75
2022/12/15 12:50:38;;;;;;;61.95;23.80;;;-3.30;99.90;;;;;;5090444;28;20039;-74
2022/12/15 12:53:03;;;;;;;56.72;23.55;;;-3.40;99.90;;;;;;5073365;28;20062;-75
2022/12/15 12:55:40;;;;;;;59.65;24.58;;;-3.40;99.90;;;;;;5079103;28;20052;-74
2022/12/15 12:58:32;;;;;;;57.88;21.50;;;-3.30;99.90;;;;;;5076786;28;20029;-76
2022/12/15 13:01:11;;;;;;;47.88;20.70;;;-3.30;99.90;;;;;;5074995;28;20033;-74
2022/12/15 13:03:41;;;;;;;53.85;23.27;;;-3.30;99.90;;;;;;5074328;28;20673;-74
2022/12/15 13:06:32;;;;;;;49.00;20.92;;;-3.30;99.90;;;;;;5080337;28;20040;-74
2022/12/15 13:09:18;;;;;;;52.67;22.00;;;-3.30;99.90;;;;;;5075642;28;20270;-76
2022/12/15 13:11:56;;;;;;;47.10;21.48;;;-3.30;99.90;;;;;;5078204;28;20032;-73
2022/12/15 13:14:39;;;;;;;51.28;22.02;;;-3.40;99.90;;;;;;5076429;28;20074;-75
2022/12/15 13:17:47;;;;;;;45.72;20.23;;;-3.40;99.90;;;;;;5073778;28;20111;-75
2022/12/15 13:20:22;;;;;;;52.17;22.65;;;-3.40;99.90;;;;;;5040974;28;20051;-73
2022/12/15 13:22:48;;;;;;;54.38;23.50;;;-3.40;99.90;;;;;;5076023;28;20040;-76
2022/12/15 13:25:38;;;;;;;50.88;20.27;;;-3.40;99.90;;;;;;5081852;28;20056;-74
2022/12/15 13:28:37;;;;;;;54.13;23.40;;;-3.40;99.90;;;;;;5076100;28;20043;-75
2022/12/15 13:31:21;;;;;;;63.35;26.90;;;-3.40;99.90;;;;;;5078456;28;20020;-74
2022/12/15 13:33:50;;;;;;;54.42;23.05;;;-3.40;99.90;;;;;;5077181;28;20032;-77
2022/12/15 13:36:48;;;;;;;54.72;21.83;;;-3.40;99.90;;;;;;5082287;28;20077;-75
2022/12/15 13:39:17;;;;;;;55.40;23.25;;;-3.50;99.90;;;;;;5067676;28;20029;-77
2022/12/15 13:41:44;;;;;;;55.70;23.08;;;-3.40;99.90;;;;;;5086978;28;20016;-76
2022/12/15 13:44:31;;;;;;;59.25;23.88;;;-3.30;99.90;;;;;;5071294;28;20040;-74
2022/12/15 13:47:04;;;;;;;56.03;23.80;;;-3.30;99.90;;;;;;5066444;28;20039;-74
2022/12/15 13:49:32;;;;;;;;;;;-3.20;99.90;;;;;;5073605;28;20105;-74
2022/12/15 13:52:16;;;;;;;49.88;21.25;;;-3.10;99.90;;;;;;5082320;28;20453;-74
2022/12/15 13:54:49;;;;;;;50.78;21.55;;;-3.20;99.90;;;;;;5067220;28;21067;-75
2022/12/15 13:57:18;;;;;;;53.60;22.80;;;-3.20;99.90;;;;;;5082174;28;20119;-75
2022/12/15 13:59:46;;;;;;;53.83;23.13;;;-3.20;99.90;;;;;;5092054;28;20035;-75
2022/12/15 14:02:29;;;;;;;49.75;21.00;;;-3.10;99.90;;;;;;5075433;28;20414;-75
2022/12/15 14:05:16;;;;;;;47.20;21.90;;;-3.00;99.90;;;;;;5078745;28;20039;-74
2022/12/15 14:07:48;;;;;;;50.13;21.55;;;-2.90;99.90;;;;;;5082703;28;20501;-75
2022/12/15 14:10:21;;;;;;;48.60;20.27;;;-2.90;99.90;;;;;;5079006;28;20036;-74
2022/12/15 14:12:50;;;;;;;49.53;21.55;;;-2.80;99.90;;;;;;5083231;28;20042;-75
2022/12/15 14:15:18;;;;;;;45.88;20.95;;;-2.90;99.90;;;;;;5081089;28;20567;-74
2022/12/15 14:17:50;;;;;;;50.35;21.88;;;-2.90;99.90;;;;;;5078006;28;20444;-75
2022/12/15 14:20:22;;;;;;;49.35;21.60;;;-2.90;99.90;;;;;;5079452;28;20089;-75
2022/12/15 14:22:49;;;;;;;51.08;22.40;;;-2.90;99.90;;;;;;5075553;28;20222;-75
2022/12/15 14:25:17;;;;;;;49.53;21.85;;;-2.80;99.90;;;;;;5075933;28;20040;-75
2022/12/15 14:27:43;;;;;;;50.20;22.02;;;-2.70;99.90;;;;;;5077508;28;20345;-74
2022/12/15 14:30:27;;;;;;;48.30;19.95;;;-2.70;99.90;;;;;;5072475;28;20111;-74
2022/12/15 14:33:14;;;;;;;42.08;18.75;;;-2.70;99.90;;;;;;5071333;28;20700;-73
2022/12/15 14:36:00;;;;;;;44.10;19.40;;;-2.80;99.90;;;;;;5076170;28;20039;-73
2022/12/15 14:38:32;;;;;;;40.15;18.80;;;-3.20;99.90;;;;;;5081515;28;20159;-74
2022/12/15 14:41:01;;;;;;;48.03;21.30;;;-3.40;99.90;;;;;;5083905;28;20122;-73
2022/12/15 14:43:35;;;;;;;54.30;23.70;;;-3.50;99.90;;;;;;5086193;28;20023;-73
2022/12/15 14:46:15;;;;;;;49.45;22.48;;;-3.70;99.90;;;;;;5088562;28;20040;-73
2022/12/15 14:48:50;;;;;;;52.50;23.23;;;-3.90;99.90;;;;;;5076615;28;20028;-73
2022/12/15 14:51:16;;;;;;;57.55;23.60;;;-3.90;99.90;;;;;;5098937;28;20020;-74
2022/12/15 14:53:48;;;;;;;89.15;35.35;;;-4.00;99.90;;;;;;5073420;28;20405;-74
2022/12/15 14:56:20;;;;;;;75.88;34.65;;;-4.10;99.90;;;;;;5087225;28;20115;-74
2022/12/15 14:58:53;;;;;;;66.00;28.52;;;-4.20;99.90;;;;;;5088759;28;20032;-74
2022/12/15 15:01:24;;;;;;;59.58;25.73;;;-4.20;99.90;;;;;;5084157;28;20216;-74
2022/12/15 15:04:01;;;;;;;51.55;23.23;;;-4.30;99.90;;;;;;5083777;28;20546;-74
2022/12/15 15:06:36;;;;;;;55.70;22.92;;;-4.30;99.90;;;;;;5093967;28;20047;-73
2022/12/15 15:09:10;;;;;;;56.75;22.25;;;-4.20;99.90;;;;;;5086354;28;20032;-73
2022/12/15 15:11:38;;;;;;;50.35;21.63;;;-4.20;99.90;;;;;;5088398;28;20030;-74
2022/12/15 15:14:15;;;;;;;55.00;24.50;;;-4.20;99.90;;;;;;5079864;28;20024;-74